sensor_id;sensor_type;location;lat;lon;timestamp;temperature;humidity
74488;DHT22;63019;51.080;13.642;2023-04-15T00:00:10;6.80;99.90
74488;DHT22;63019;51.080;13.642;2023-04-15T00:01:13;6.80;99.90
74488;DHT22;63019;51.080;13.642;2023-04-15T00:02:20;6.80;99.90
74488;DHT22;63019;51.080;13.642;2023-04-15T00:03:23;6.80;99.90
74488;DHT22;63019;51.080;13.642;2023-04-15T00:04:26;6.80;99.90
74488;DHT22;63019;51.080;13.642;2023-04-15T00:05:29;6.80;99.90
74488;DHT22;63019;51.080;13.642;2023-04-15T00:06:32;6.80;99.90
74488;DHT22;63019;51.080;13.642;2023-04-15T00:07:35;6.80;99.90
74488;DHT22;63019;51.080;13.642;2023-04-15T00:08:38;6.80;99.90
74488;DHT22;63019;51.080;13.642;2023-04-15T00:09:41;6.80;99.90
74488;DHT22;63019;51.080;13.642;2023-04-15T00:10:45;6.80;99.90
74488;DHT22;63019;51.080;13.642;2023-04-15T00:11:49;6.80;99.90
74488;DHT22;63019;51.080;13.642;2023-04-15T00:12:52;6.80;99.90
74488;DHT22;63019;51.080;13.642;2023-04-15T00:13:55;6.80;99.90
74488;DHT22;63019;51.080;13.642;2023-04-15T00:14:57;6.80;99.90
74488;DHT22;63019;51.080;13.642;2023-04-15T00:16:00;6.80;99.90
74488;DHT22;63019;51.080;13.642;2023-04-15T00:17:03;6.80;99.90
74488;DHT22;63019;51.080;13.642;2023-04-15T00:18:06;6.80;99.90
74488;DHT22;63019;51.080;13.642;2023-04-15T00:19:09;6.80;99.90
74488;DHT22;63019;51.080;13.642;2023-04-15T00:20:14;6.80;99.90
74488;DHT22;63019;51.080;13.642;2023-04-15T00:21:16;6.80;99.90
74488;DHT22;63019;51.080;13.642;2023-04-15T00:22:19;6.80;99.90
74488;DHT22;63019;51.080;13.642;2023-04-15T00:23:22;6.80;99.90
74488;DHT22;63019;51.080;13.642;2023-04-15T00:24:25;6.80;99.90
74488;DHT22;63019;51.080;13.642;2023-04-15T00:25:27;6.80;99.90
74488;DHT22;63019;51.080;13.642;2023-04-15T00:26:30;6.80;99.90
74488;DHT22;63019;51.080;13.642;2023-04-15T00:27:32;6.80;99.90
74488;DHT22;63019;51.080;13.642;2023-04-15T00:28:35;6.80;99.90
74488;DHT22;63019;51.080;13.642;2023-04-15T00:29:38;6.80;99.90
74488;DHT22;63019;51.080;13.642;2023-04-15T00:30:40;6.80;99.90
74488;DHT22;63019;51.080;13.642;2023-04-15T00:31:43;6.80;99.90
74488;DHT22;63019;51.080;13.642;2023-04-15T00:32:45;6.80;99.90
74488;DHT22;63019;51.080;13.642;2023-04-15T00:33:54;6.80;99.90
74488;DHT22;63019;51.080;13.642;2023-04-15T00:34:57;6.80;99.90
74488;DHT22;63019;51.080;13.642;2023-04-15T00:36:01;6.80;99.90
74488;DHT22;63019;51.080;13.642;2023-04-15T00:37:05;6.80;99.90
74488;DHT22;63019;51.080;13.642;2023-04-15T00:38:07;6.80;99.90
74488;DHT22;63019;51.080;13.642;2023-04-15T00:39:10;6.80;99.90
74488;DHT22;63019;51.080;13.642;2023-04-15T00:40:13;6.80;99.90
74488;DHT22;63019;51.080;13.642;2023-04-15T00:41:18;6.80;99.90
74488;DHT22;63019;51.080;13.642;2023-04-15T00:42:22;6.70;99.90
74488;DHT22;63019;51.080;13.642;2023-04-15T00:43:26;6.80;99.90
74488;DHT22;63019;51.080;13.642;2023-04-15T00:44:31;6.80;99.90
74488;DHT22;63019;51.080;13.642;2023-04-15T00:45:34;6.80;99.90
74488;DHT22;63019;51.080;13.642;2023-04-15T00:46:37;6.80;99.90
74488;DHT22;63019;51.080;13.642;2023-04-15T00:47:45;6.80;99.90
74488;DHT22;63019;51.080;13.642;2023-04-15T00:48:48;6.80;99.90
74488;DHT22;63019;51.080;13.642;2023-04-15T00:49:51;6.80;99.90
74488;DHT22;63019;51.080;13.642;2023-04-15T00:50:54;6.80;99.90
74488;DHT22;63019;51.080;13.642;2023-04-15T00:51:56;6.80;99.90
74488;DHT22;63019;51.080;13.642;2023-04-15T00:52:59;6.80;99.90
74488;DHT22;63019;51.080;13.642;2023-04-15T00:54:05;6.80;99.90
74488;DHT22;63019;51.080;13.642;2023-04-15T00:55:08;6.80;99.90
74488;DHT22;63019;51.080;13.642;2023-04-15T00:56:13;6.80;99.90
74488;DHT22;63019;51.080;13.642;2023-04-15T00:57:15;6.80;99.90
74488;DHT22;63019;51.080;13.642;2023-04-15T00:58:18;6.80;99.90
74488;DHT22;63019;51.080;13.642;2023-04-15T00:59:20;6.80;99.90
74488;DHT22;63019;51.080;13.642;2023-04-15T01:00:23;6.80;99.90
74488;DHT22;63019;51.080;13.642;2023-04-15T01:01:26;6.80;99.90
74488;DHT22;63019;51.080;13.642;2023-04-15T01:02:30;6.80;99.90
74488;DHT22;63019;51.080;13.642;2023-04-15T01:03:33;6.80;99.90
74488;DHT22;63019;51.080;13.642;2023-04-15T01:04:37;6.80;99.90
74488;DHT22;63019;51.080;13.642;2023-04-15T01:05:39;6.80;99.90
74488;DHT22;63019;51.080;13.642;2023-04-15T01:06:43;6.80;99.90
74488;DHT22;63019;51.080;13.642;2023-04-15T01:07:48;6.80;99.90
74488;DHT22;63019;51.080;13.642;2023-04-15T01:08:51;6.80;99.90
74488;DHT22;63019;51.080;13.642;2023-04-15T01:09:55;6.80;99.90
74488;DHT22;63019;51.080;13.642;2023-04-15T01:11:00;6.80;99.90
74488;DHT22;63019;51.080;13.642;2023-04-15T01:12:06;6.80;99.90
74488;DHT22;63019;51.080;13.642;2023-04-15T01:13:12;6.80;99.90
74488;DHT22;63019;51.080;13.642;2023-04-15T01:14:15;6.80;99.90
74488;DHT22;63019;51.080;13.642;2023-04-15T01:15:17;6.80;99.90
74488;DHT22;63019;51.080;13.642;2023-04-15T01:16:20;6.80;99.90
74488;DHT22;63019;51.080;13.642;2023-04-15T01:17:24;6.80;99.90
74488;DHT22;63019;51.080;13.642;2023-04-15T01:18:29;6.80;99.90
74488;DHT22;63019;51.080;13.642;2023-04-15T01:19:32;6.80;99.90
74488;DHT22;63019;51.080;13.642;2023-04-15T01:20:35;6.80;99.90
74488;DHT22;63019;51.080;13.642;2023-04-15T01:21:38;6.80;99.90
74488;DHT22;63019;51.080;13.642;2023-04-15T01:22:41;6.80;99.90
74488;DHT22;63019;51.080;13.642;2023-04-15T01:23:46;6.80;99.90
74488;DHT22;63019;51.080;13.642;2023-04-15T01:25:05;6.80;99.90
74488;DHT22;63019;51.080;13.642;2023-04-15T01:26:09;6.80;99.90
74488;DHT22;63019;51.080;13.642;2023-04-15T01:27:15;6.80;99.90
74488;DHT22;63019;51.080;13.642;2023-04-15T01:28:18;6.80;99.90
74488;DHT22;63019;51.080;13.642;2023-04-15T01:29:21;6.80;99.90
74488;DHT22;63019;51.080;13.642;2023-04-15T01:30:24;6.80;99.90
74488;DHT22;63019;51.080;13.642;2023-04-15T01:31:27;6.80;99.90
74488;DHT22;63019;51.080;13.642;2023-04-15T01:32:30;6.80;99.90
74488;DHT22;63019;51.080;13.642;2023-04-15T01:33:32;6.80;99.90
74488;DHT22;63019;51.080;13.642;2023-04-15T01:34:36;6.80;99.90
74488;DHT22;63019;51.080;13.642;2023-04-15T01:35:38;6.80;99.90
74488;DHT22;63019;51.080;13.642;2023-04-15T01:36:42;6.80;99.90
74488;DHT22;63019;51.080;13.642;2023-04-15T01:37:44;6.80;99.90
74488;DHT22;63019;51.080;13.642;2023-04-15T01:38:47;6.80;99.90
74488;DHT22;63019;51.080;13.642;2023-04-15T01:39:51;6.80;99.90
74488;DHT22;63019;51.080;13.642;2023-04-15T01:40:53;6.80;99.90
74488;DHT22;63019;51.080;13.642;2023-04-15T01:41:56;6.80;99.90
74488;DHT22;63019;51.080;13.642;2023-04-15T01:42:59;6.80;99.90
74488;DHT22;63019;51.080;13.642;2023-04-15T01:44:02;6.80;99.90
74488;DHT22;63019;51.080;13.642;2023-04-15T01:45:06;6.80;99.90
74488;DHT22;63019;51.080;13.642;2023-04-15T01:46:09;6.80;99.90
74488;DHT22;63019;51.080;13.642;2023-04-15T01:47:12;6.80;99.90
74488;DHT22;63019;51.080;13.642;2023-04-15T01:48:15;6.80;99.90
74488;DHT22;63019;51.080;13.642;2023-04-15T01:49:19;6.80;99.90
74488;DHT22;63019;51.080;13.642;2023-04-15T01:50:22;6.80;99.90
74488;DHT22;63019;51.080;13.642;2023-04-15T01:51:24;6.80;99.90
74488;DHT22;63019;51.080;13.642;2023-04-15T01:52:27;6.80;99.90
74488;DHT22;63019;51.080;13.642;2023-04-15T01:53:30;6.80;99.90
74488;DHT22;63019;51.080;13.642;2023-04-15T01:54:32;6.80;99.90
74488;DHT22;63019;51.080;13.642;2023-04-15T01:55:35;6.80;99.90
74488;DHT22;63019;51.080;13.642;2023-04-15T01:56:39;6.80;99.90
74488;DHT22;63019;51.080;13.642;2023-04-15T01:57:43;6.80;99.90
74488;DHT22;63019;51.080;13.642;2023-04-15T01:58:46;6.80;99.90
74488;DHT22;63019;51.080;13.642;2023-04-15T01:59:49;6.80;99.90
74488;DHT22;63019;51.080;13.642;2023-04-15T02:00:52;6.80;99.90
74488;DHT22;63019;51.080;13.642;2023-04-15T02:01:55;6.80;99.90
74488;DHT22;63019;51.080;13.642;2023-04-15T02:02:58;6.80;99.90
74488;DHT22;63019;51.080;13.642;2023-04-15T02:04:03;6.80;99.90
74488;DHT22;63019;51.080;13.642;2023-04-15T02:05:07;6.80;99.90
74488;DHT22;63019;51.080;13.642;2023-04-15T02:06:10;6.80;99.90
74488;DHT22;63019;51.080;13.642;2023-04-15T02:07:13;6.80;99.90
74488;DHT22;63019;51.080;13.642;2023-04-15T02:08:15;6.80;99.90
74488;DHT22;63019;51.080;13.642;2023-04-15T02:09:20;6.80;99.90
74488;DHT22;63019;51.080;13.642;2023-04-15T02:10:23;6.80;99.90
74488;DHT22;63019;51.080;13.642;2023-04-15T02:11:26;6.80;99.90
74488;DHT22;63019;51.080;13.642;2023-04-15T02:12:29;6.80;99.90
74488;DHT22;63019;51.080;13.642;2023-04-15T02:13:31;6.80;99.90
74488;DHT22;63019;51.080;13.642;2023-04-15T02:14:34;6.80;99.90
74488;DHT22;63019;51.080;13.642;2023-04-15T02:15:36;6.80;99.90
74488;DHT22;63019;51.080;13.642;2023-04-15T02:16:39;6.80;99.90
74488;DHT22;63019;51.080;13.642;2023-04-15T02:17:42;6.70;99.90
74488;DHT22;63019;51.080;13.642;2023-04-15T02:18:47;6.70;99.90
74488;DHT22;63019;51.080;13.642;2023-04-15T02:19:50;6.70;99.90
74488;DHT22;63019;51.080;13.642;2023-04-15T02:20:54;6.80;99.90
74488;DHT22;63019;51.080;13.642;2023-04-15T02:22:00;6.80;99.90
74488;DHT22;63019;51.080;13.642;2023-04-15T02:23:05;6.80;99.90
74488;DHT22;63019;51.080;13.642;2023-04-15T02:24:09;6.80;99.90
74488;DHT22;63019;51.080;13.642;2023-04-15T02:25:13;6.80;99.90
74488;DHT22;63019;51.080;13.642;2023-04-15T02:26:17;6.80;99.90
74488;DHT22;63019;51.080;13.642;2023-04-15T02:27:19;6.80;99.90
74488;DHT22;63019;51.080;13.642;2023-04-15T02:28:21;6.80;99.90
74488;DHT22;63019;51.080;13.642;2023-04-15T02:29:23;6.80;99.90
74488;DHT22;63019;51.080;13.642;2023-04-15T02:30:24;6.80;99.90
74488;DHT22;63019;51.080;13.642;2023-04-15T02:31:27;6.80;99.90
74488;DHT22;63019;51.080;13.642;2023-04-15T02:32:29;6.80;99.90
74488;DHT22;63019;51.080;13.642;2023-04-15T02:33:31;6.80;99.90
74488;DHT22;63019;51.080;13.642;2023-04-15T02:34:33;6.80;99.90
74488;DHT22;63019;51.080;13.642;2023-04-15T02:35:34;6.80;99.90
74488;DHT22;63019;51.080;13.642;2023-04-15T02:36:39;6.80;99.90
74488;DHT22;63019;51.080;13.642;2023-04-15T02:37:41;6.80;99.90
74488;DHT22;63019;51.080;13.642;2023-04-15T02:38:45;6.80;99.90
74488;DHT22;63019;51.080;13.642;2023-04-15T02:39:46;6.80;99.90
74488;DHT22;63019;51.080;13.642;2023-04-15T02:40:48;6.80;99.90
74488;DHT22;63019;51.080;13.642;2023-04-15T02:41:50;6.80;99.90
74488;DHT22;63019;51.080;13.642;2023-04-15T02:42:53;6.80;99.90
74488;DHT22;63019;51.080;13.642;2023-04-15T02:43:55;6.80;99.90
74488;DHT22;63019;51.080;13.642;2023-04-15T02:44:57;6.80;99.90
74488;DHT22;63019;51.080;13.642;2023-04-15T02:45:59;6.80;99.90
74488;DHT22;63019;51.080;13.642;2023-04-15T02:47:01;6.80;99.90
74488;DHT22;63019;51.080;13.642;2023-04-15T02:48:05;6.80;99.90
74488;DHT22;63019;51.080;13.642;2023-04-15T02:49:07;6.80;99.90
74488;DHT22;63019;51.080;13.642;2023-04-15T02:50:11;6.80;99.90
74488;DHT22;63019;51.080;13.642;2023-04-15T02:51:14;6.80;99.90
74488;DHT22;63019;51.080;13.642;2023-04-15T02:52:17;6.80;99.90
74488;DHT22;63019;51.080;13.642;2023-04-15T02:53:19;6.80;99.90
74488;DHT22;63019;51.080;13.642;2023-04-15T02:54:21;6.80;99.90
74488;DHT22;63019;51.080;13.642;2023-04-15T02:55:23;6.80;99.90
74488;DHT22;63019;51.080;13.642;2023-04-15T02:56:25;6.80;99.90
74488;DHT22;63019;51.080;13.642;2023-04-15T02:57:27;6.80;99.90
74488;DHT22;63019;51.080;13.642;2023-04-15T02:58:30;6.80;99.90
74488;DHT22;63019;51.080;13.642;2023-04-15T02:59:32;6.80;99.90
74488;DHT22;63019;51.080;13.642;2023-04-15T03:00:34;6.80;99.90
74488;DHT22;63019;51.080;13.642;2023-04-15T03:01:35;6.80;99.90
74488;DHT22;63019;51.080;13.642;2023-04-15T03:02:38;6.80;99.90
74488;DHT22;63019;51.080;13.642;2023-04-15T03:03:40;6.80;99.90
74488;DHT22;63019;51.080;13.642;2023-04-15T03:04:42;6.80;99.90
74488;DHT22;63019;51.080;13.642;2023-04-15T03:05:44;6.80;99.90
74488;DHT22;63019;51.080;13.642;2023-04-15T03:06:46;6.80;99.90
74488;DHT22;63019;51.080;13.642;2023-04-15T03:07:48;6.80;99.90
74488;DHT22;63019;51.080;13.642;2023-04-15T03:08:49;6.80;99.90
74488;DHT22;63019;51.080;13.642;2023-04-15T03:09:51;6.80;99.90
74488;DHT22;63019;51.080;13.642;2023-04-15T03:10:53;6.80;99.90
74488;DHT22;63019;51.080;13.642;2023-04-15T03:11:55;6.80;99.90
74488;DHT22;63019;51.080;13.642;2023-04-15T03:12:57;6.80;99.90
74488;DHT22;63019;51.080;13.642;2023-04-15T03:13:59;6.80;99.90
74488;DHT22;63019;51.080;13.642;2023-04-15T03:15:01;6.80;99.90
74488;DHT22;63019;51.080;13.642;2023-04-15T03:16:03;6.80;99.90
74488;DHT22;63019;51.080;13.642;2023-04-15T03:17:05;6.80;99.90
74488;DHT22;63019;51.080;13.642;2023-04-15T03:18:06;6.80;99.90
74488;DHT22;63019;51.080;13.642;2023-04-15T03:19:09;6.80;99.90
74488;DHT22;63019;51.080;13.642;2023-04-15T03:20:11;6.80;99.90
74488;DHT22;63019;51.080;13.642;2023-04-15T03:21:13;6.80;99.90
74488;DHT22;63019;51.080;13.642;2023-04-15T03:22:15;6.80;99.90
74488;DHT22;63019;51.080;13.642;2023-04-15T03:23:17;6.80;99.90
74488;DHT22;63019;51.080;13.642;2023-04-15T03:24:19;6.80;99.90
74488;DHT22;63019;51.080;13.642;2023-04-15T03:25:21;6.80;99.90
74488;DHT22;63019;51.080;13.642;2023-04-15T03:26:26;6.80;99.90
74488;DHT22;63019;51.080;13.642;2023-04-15T03:27:28;6.80;99.90
74488;DHT22;63019;51.080;13.642;2023-04-15T03:28:30;6.80;99.90
74488;DHT22;63019;51.080;13.642;2023-04-15T03:29:33;6.80;99.90
74488;DHT22;63019;51.080;13.642;2023-04-15T03:30:35;6.80;99.90
74488;DHT22;63019;51.080;13.642;2023-04-15T03:31:36;6.80;99.90
74488;DHT22;63019;51.080;13.642;2023-04-15T03:32:39;6.80;99.90
74488;DHT22;63019;51.080;13.642;2023-04-15T03:33:41;6.80;99.90
74488;DHT22;63019;51.080;13.642;2023-04-15T03:34:42;6.80;99.90
74488;DHT22;63019;51.080;13.642;2023-04-15T03:35:44;6.80;99.90
74488;DHT22;63019;51.080;13.642;2023-04-15T03:36:47;6.80;99.90
74488;DHT22;63019;51.080;13.642;2023-04-15T03:37:48;6.80;99.90
74488;DHT22;63019;51.080;13.642;2023-04-15T03:38:50;6.90;99.90
74488;DHT22;63019;51.080;13.642;2023-04-15T03:39:52;6.80;99.90
74488;DHT22;63019;51.080;13.642;2023-04-15T03:40:53;6.80;99.90
74488;DHT22;63019;51.080;13.642;2023-04-15T03:41:55;6.80;99.90
74488;DHT22;63019;51.080;13.642;2023-04-15T03:42:58;6.90;99.90
74488;DHT22;63019;51.080;13.642;2023-04-15T03:44:00;6.90;99.90
74488;DHT22;63019;51.080;13.642;2023-04-15T03:45:01;6.90;99.90
74488;DHT22;63019;51.080;13.642;2023-04-15T03:46:04;6.90;99.90
74488;DHT22;63019;51.080;13.642;2023-04-15T03:47:06;6.90;99.90
74488;DHT22;63019;51.080;13.642;2023-04-15T03:48:08;6.90;99.90
74488;DHT22;63019;51.080;13.642;2023-04-15T03:49:19;6.80;99.90
74488;DHT22;63019;51.080;13.642;2023-04-15T03:50:21;6.90;99.90
74488;DHT22;63019;51.080;13.642;2023-04-15T03:51:23;6.90;99.90
74488;DHT22;63019;51.080;13.642;2023-04-15T03:52:24;6.90;99.90
74488;DHT22;63019;51.080;13.642;2023-04-15T03:53:26;6.90;99.90
74488;DHT22;63019;51.080;13.642;2023-04-15T03:54:28;6.90;99.90
74488;DHT22;63019;51.080;13.642;2023-04-15T03:55:30;6.90;99.90
74488;DHT22;63019;51.080;13.642;2023-04-15T03:56:32;6.90;99.90
74488;DHT22;63019;51.080;13.642;2023-04-15T03:57:34;6.90;99.90
74488;DHT22;63019;51.080;13.642;2023-04-15T03:58:38;6.90;99.90
74488;DHT22;63019;51.080;13.642;2023-04-15T03:59:40;6.90;99.90
74488;DHT22;63019;51.080;13.642;2023-04-15T04:00:42;6.90;99.90
74488;DHT22;63019;51.080;13.642;2023-04-15T04:01:44;6.80;99.90
74488;DHT22;63019;51.080;13.642;2023-04-15T04:02:46;6.80;99.90
74488;DHT22;63019;51.080;13.642;2023-04-15T04:03:48;6.80;99.90
74488;DHT22;63019;51.080;13.642;2023-04-15T04:04:50;6.80;99.90
74488;DHT22;63019;51.080;13.642;2023-04-15T04:05:52;6.80;99.90
74488;DHT22;63019;51.080;13.642;2023-04-15T04:06:54;6.90;99.90
74488;DHT22;63019;51.080;13.642;2023-04-15T04:07:56;6.90;99.90
74488;DHT22;63019;51.080;13.642;2023-04-15T04:08:57;6.90;99.90
74488;DHT22;63019;51.080;13.642;2023-04-15T04:09:59;6.90;99.90
74488;DHT22;63019;51.080;13.642;2023-04-15T04:11:01;6.90;99.90
74488;DHT22;63019;51.080;13.642;2023-04-15T04:12:03;6.90;99.90
74488;DHT22;63019;51.080;13.642;2023-04-15T04:13:05;6.90;99.90
74488;DHT22;63019;51.080;13.642;2023-04-15T04:14:07;6.90;99.90
74488;DHT22;63019;51.080;13.642;2023-04-15T04:15:09;6.90;99.90
74488;DHT22;63019;51.080;13.642;2023-04-15T04:16:10;6.90;99.90
74488;DHT22;63019;51.080;13.642;2023-04-15T04:17:13;6.90;99.90
74488;DHT22;63019;51.080;13.642;2023-04-15T04:18:14;6.90;99.90
74488;DHT22;63019;51.080;13.642;2023-04-15T04:19:16;6.90;99.90
74488;DHT22;63019;51.080;13.642;2023-04-15T04:20:20;6.90;99.90
74488;DHT22;63019;51.080;13.642;2023-04-15T04:21:22;6.90;99.90
74488;DHT22;63019;51.080;13.642;2023-04-15T04:22:25;6.90;99.90
74488;DHT22;63019;51.080;13.642;2023-04-15T04:23:26;6.90;99.90
74488;DHT22;63019;51.080;13.642;2023-04-15T04:24:28;6.90;99.90
74488;DHT22;63019;51.080;13.642;2023-04-15T04:25:30;6.90;99.90
74488;DHT22;63019;51.080;13.642;2023-04-15T04:26:32;6.90;99.90
74488;DHT22;63019;51.080;13.642;2023-04-15T04:27:34;6.90;99.90
74488;DHT22;63019;51.080;13.642;2023-04-15T04:28:36;6.90;99.90
74488;DHT22;63019;51.080;13.642;2023-04-15T04:29:40;6.90;99.90
74488;DHT22;63019;51.080;13.642;2023-04-15T04:30:42;6.90;99.90
74488;DHT22;63019;51.080;13.642;2023-04-15T04:31:43;6.90;99.90
74488;DHT22;63019;51.080;13.642;2023-04-15T04:32:45;6.90;99.90
74488;DHT22;63019;51.080;13.642;2023-04-15T04:33:47;6.90;99.90
74488;DHT22;63019;51.080;13.642;2023-04-15T04:34:49;6.90;99.90
74488;DHT22;63019;51.080;13.642;2023-04-15T04:35:51;6.90;99.90
74488;DHT22;63019;51.080;13.642;2023-04-15T04:36:52;6.90;99.90
74488;DHT22;63019;51.080;13.642;2023-04-15T04:37:54;6.90;99.90
74488;DHT22;63019;51.080;13.642;2023-04-15T04:38:56;7.00;99.90
74488;DHT22;63019;51.080;13.642;2023-04-15T04:39:58;7.00;99.90
74488;DHT22;63019;51.080;13.642;2023-04-15T04:41:00;7.00;99.90
74488;DHT22;63019;51.080;13.642;2023-04-15T04:42:01;7.00;99.90
74488;DHT22;63019;51.080;13.642;2023-04-15T04:43:03;6.90;99.90
74488;DHT22;63019;51.080;13.642;2023-04-15T04:44:05;6.90;99.90
74488;DHT22;63019;51.080;13.642;2023-04-15T04:45:07;6.90;99.90
74488;DHT22;63019;51.080;13.642;2023-04-15T04:46:09;6.90;99.90
74488;DHT22;63019;51.080;13.642;2023-04-15T04:47:12;7.00;99.90
74488;DHT22;63019;51.080;13.642;2023-04-15T04:48:14;7.00;99.90
74488;DHT22;63019;51.080;13.642;2023-04-15T04:49:17;6.90;99.90
74488;DHT22;63019;51.080;13.642;2023-04-15T04:50:19;6.90;99.90
74488;DHT22;63019;51.080;13.642;2023-04-15T04:51:22;6.90;99.90
74488;DHT22;63019;51.080;13.642;2023-04-15T04:52:24;6.90;99.90
74488;DHT22;63019;51.080;13.642;2023-04-15T04:53:26;6.90;99.90
74488;DHT22;63019;51.080;13.642;2023-04-15T04:54:28;6.90;99.90
74488;DHT22;63019;51.080;13.642;2023-04-15T04:55:31;7.00;99.90
74488;DHT22;63019;51.080;13.642;2023-04-15T04:56:33;7.00;99.90
74488;DHT22;63019;51.080;13.642;2023-04-15T04:57:35;7.00;99.90
74488;DHT22;63019;51.080;13.642;2023-04-15T04:58:38;7.00;99.90
74488;DHT22;63019;51.080;13.642;2023-04-15T04:59:40;7.00;99.90
74488;DHT22;63019;51.080;13.642;2023-04-15T05:00:41;7.00;99.90
74488;DHT22;63019;51.080;13.642;2023-04-15T05:01:43;7.00;99.90
74488;DHT22;63019;51.080;13.642;2023-04-15T05:02:45;7.00;99.90
74488;DHT22;63019;51.080;13.642;2023-04-15T05:03:47;7.00;99.90
74488;DHT22;63019;51.080;13.642;2023-04-15T05:04:49;7.00;99.90
74488;DHT22;63019;51.080;13.642;2023-04-15T05:05:54;7.00;99.90
74488;DHT22;63019;51.080;13.642;2023-04-15T05:06:57;7.00;99.90
74488;DHT22;63019;51.080;13.642;2023-04-15T05:07:59;7.00;99.90
74488;DHT22;63019;51.080;13.642;2023-04-15T05:09:02;7.00;99.90
74488;DHT22;63019;51.080;13.642;2023-04-15T05:10:05;7.00;99.90
74488;DHT22;63019;51.080;13.642;2023-04-15T05:11:07;7.00;99.90
74488;DHT22;63019;51.080;13.642;2023-04-15T05:12:09;7.00;99.90
74488;DHT22;63019;51.080;13.642;2023-04-15T05:13:15;7.00;99.90
74488;DHT22;63019;51.080;13.642;2023-04-15T05:14:17;7.00;99.90
74488;DHT22;63019;51.080;13.642;2023-04-15T05:15:19;7.00;99.90
74488;DHT22;63019;51.080;13.642;2023-04-15T05:16:20;7.00;99.90
74488;DHT22;63019;51.080;13.642;2023-04-15T05:17:22;7.00;99.90
74488;DHT22;63019;51.080;13.642;2023-04-15T05:18:25;7.00;99.90
74488;DHT22;63019;51.080;13.642;2023-04-15T05:19:26;7.10;99.90
74488;DHT22;63019;51.080;13.642;2023-04-15T05:20:28;7.00;99.90
74488;DHT22;63019;51.080;13.642;2023-04-15T05:21:30;7.00;99.90
74488;DHT22;63019;51.080;13.642;2023-04-15T05:22:32;7.10;99.90
74488;DHT22;63019;51.080;13.642;2023-04-15T05:23:34;7.10;99.90
74488;DHT22;63019;51.080;13.642;2023-04-15T05:24:35;7.10;99.90
74488;DHT22;63019;51.080;13.642;2023-04-15T05:25:38;7.10;99.90
74488;DHT22;63019;51.080;13.642;2023-04-15T05:26:39;7.10;99.90
74488;DHT22;63019;51.080;13.642;2023-04-15T05:27:43;7.10;99.90
74488;DHT22;63019;51.080;13.642;2023-04-15T05:28:45;7.10;99.90
74488;DHT22;63019;51.080;13.642;2023-04-15T05:29:47;7.10;99.90
74488;DHT22;63019;51.080;13.642;2023-04-15T05:30:48;7.10;99.90
74488;DHT22;63019;51.080;13.642;2023-04-15T05:31:51;7.10;99.90
74488;DHT22;63019;51.080;13.642;2023-04-15T05:32:52;7.10;99.90
74488;DHT22;63019;51.080;13.642;2023-04-15T05:33:54;7.10;99.90
74488;DHT22;63019;51.080;13.642;2023-04-15T05:34:56;7.10;99.90
74488;DHT22;63019;51.080;13.642;2023-04-15T05:35:58;7.10;99.90
74488;DHT22;63019;51.080;13.642;2023-04-15T05:36:59;7.10;99.90
74488;DHT22;63019;51.080;13.642;2023-04-15T05:38:01;7.20;99.90
74488;DHT22;63019;51.080;13.642;2023-04-15T05:39:04;7.20;99.90
74488;DHT22;63019;51.080;13.642;2023-04-15T05:40:06;7.20;99.90
74488;DHT22;63019;51.080;13.642;2023-04-15T05:41:08;7.30;99.90
74488;DHT22;63019;51.080;13.642;2023-04-15T05:42:10;7.30;99.90
74488;DHT22;63019;51.080;13.642;2023-04-15T05:43:12;7.30;99.90
74488;DHT22;63019;51.080;13.642;2023-04-15T05:44:13;7.30;99.90
74488;DHT22;63019;51.080;13.642;2023-04-15T05:45:15;7.30;99.90
74488;DHT22;63019;51.080;13.642;2023-04-15T05:46:17;7.40;99.90
74488;DHT22;63019;51.080;13.642;2023-04-15T05:47:19;7.40;99.90
74488;DHT22;63019;51.080;13.642;2023-04-15T05:48:20;7.40;99.90
74488;DHT22;63019;51.080;13.642;2023-04-15T05:49:22;7.50;99.90
74488;DHT22;63019;51.080;13.642;2023-04-15T05:50:24;7.40;99.90
74488;DHT22;63019;51.080;13.642;2023-04-15T05:51:26;7.40;99.90
74488;DHT22;63019;51.080;13.642;2023-04-15T05:52:28;7.50;99.90
74488;DHT22;63019;51.080;13.642;2023-04-15T05:53:30;7.40;99.90
74488;DHT22;63019;51.080;13.642;2023-04-15T05:54:32;7.50;99.90
74488;DHT22;63019;51.080;13.642;2023-04-15T05:55:34;7.50;99.90
74488;DHT22;63019;51.080;13.642;2023-04-15T05:56:35;7.50;99.90
74488;DHT22;63019;51.080;13.642;2023-04-15T05:57:37;7.50;99.90
74488;DHT22;63019;51.080;13.642;2023-04-15T05:58:39;7.50;99.90
74488;DHT22;63019;51.080;13.642;2023-04-15T05:59:41;7.50;99.90
74488;DHT22;63019;51.080;13.642;2023-04-15T06:00:43;7.60;99.90
74488;DHT22;63019;51.080;13.642;2023-04-15T06:01:46;7.60;99.90
74488;DHT22;63019;51.080;13.642;2023-04-15T06:02:49;7.60;99.90
74488;DHT22;63019;51.080;13.642;2023-04-15T06:03:51;7.60;99.90
74488;DHT22;63019;51.080;13.642;2023-04-15T06:04:53;7.60;99.90
74488;DHT22;63019;51.080;13.642;2023-04-15T06:05:55;7.60;99.90
74488;DHT22;63019;51.080;13.642;2023-04-15T06:06:56;7.60;99.90
74488;DHT22;63019;51.080;13.642;2023-04-15T06:07:58;7.50;99.90
74488;DHT22;63019;51.080;13.642;2023-04-15T06:09:00;7.50;99.90
74488;DHT22;63019;51.080;13.642;2023-04-15T06:10:03;7.50;99.90
74488;DHT22;63019;51.080;13.642;2023-04-15T06:11:05;7.50;99.90
74488;DHT22;63019;51.080;13.642;2023-04-15T06:12:07;7.60;99.90
74488;DHT22;63019;51.080;13.642;2023-04-15T06:13:12;7.50;99.90
74488;DHT22;63019;51.080;13.642;2023-04-15T06:14:14;7.50;99.90
74488;DHT22;63019;51.080;13.642;2023-04-15T06:15:16;7.50;99.90
74488;DHT22;63019;51.080;13.642;2023-04-15T06:16:18;7.50;99.90
74488;DHT22;63019;51.080;13.642;2023-04-15T06:17:20;7.50;99.90
74488;DHT22;63019;51.080;13.642;2023-04-15T06:18:22;7.50;99.90
74488;DHT22;63019;51.080;13.642;2023-04-15T06:19:23;7.40;99.90
74488;DHT22;63019;51.080;13.642;2023-04-15T06:20:26;7.40;99.90
74488;DHT22;63019;51.080;13.642;2023-04-15T06:21:29;7.40;99.90
74488;DHT22;63019;51.080;13.642;2023-04-15T06:22:31;7.50;99.90
74488;DHT22;63019;51.080;13.642;2023-04-15T06:23:34;7.50;99.90
74488;DHT22;63019;51.080;13.642;2023-04-15T06:24:36;7.50;99.90
74488;DHT22;63019;51.080;13.642;2023-04-15T06:25:38;7.50;99.90
74488;DHT22;63019;51.080;13.642;2023-04-15T06:26:40;7.50;99.90
74488;DHT22;63019;51.080;13.642;2023-04-15T06:27:42;7.50;99.90
74488;DHT22;63019;51.080;13.642;2023-04-15T06:28:44;7.50;99.90
74488;DHT22;63019;51.080;13.642;2023-04-15T06:29:45;7.60;99.90
74488;DHT22;63019;51.080;13.642;2023-04-15T06:30:47;7.60;99.90
74488;DHT22;63019;51.080;13.642;2023-04-15T06:31:49;7.60;99.90
74488;DHT22;63019;51.080;13.642;2023-04-15T06:32:51;7.60;99.90
74488;DHT22;63019;51.080;13.642;2023-04-15T06:33:53;7.50;99.90
74488;DHT22;63019;51.080;13.642;2023-04-15T06:34:55;7.50;99.90